sensor_id;sensor_type;location;lat;lon;timestamp;temperature;humidity
29501;DHT22;16450;50.288;10.966;2022-09-29T00:01:35;6.90;95.60
29501;DHT22;16450;50.288;10.966;2022-09-29T00:04:36;6.90;95.60
29501;DHT22;16450;50.288;10.966;2022-09-29T00:07:37;6.80;95.70
29501;DHT22;16450;50.288;10.966;2022-09-29T00:10:40;6.80;95.70
29501;DHT22;16450;50.288;10.966;2022-09-29T00:13:42;6.80;95.50
29501;DHT22;16450;50.288;10.966;2022-09-29T00:16:43;6.70;95.60
29501;DHT22;16450;50.288;10.966;2022-09-29T00:19:43;6.70;95.80
29501;DHT22;16450;50.288;10.966;2022-09-29T00:22:48;6.70;95.90
29501;DHT22;16450;50.288;10.966;2022-09-29T00:25:59;6.70;96.20
29501;DHT22;16450;50.288;10.966;2022-09-29T00:29:00;6.70;96.30
29501;DHT22;16450;50.288;10.966;2022-09-29T00:32:00;6.70;96.70
29501;DHT22;16450;50.288;10.966;2022-09-29T00:35:01;6.70;96.80
29501;DHT22;16450;50.288;10.966;2022-09-29T00:38:02;6.70;96.90
29501;DHT22;16450;50.288;10.966;2022-09-29T00:41:03;6.70;96.90
29501;DHT22;16450;50.288;10.966;2022-09-29T00:47:15;6.70;96.80
29501;DHT22;16450;50.288;10.966;2022-09-29T00:50:22;6.80;96.90
29501;DHT22;16450;50.288;10.966;2022-09-29T00:53:26;6.80;96.90
29501;DHT22;16450;50.288;10.966;2022-09-29T00:56:28;6.80;97.10
29501;DHT22;16450;50.288;10.966;2022-09-29T00:59:39;6.80;97.10
29501;DHT22;16450;50.288;10.966;2022-09-29T01:03:04;6.80;96.90
29501;DHT22;16450;50.288;10.966;2022-09-29T01:06:15;6.80;96.40
29501;DHT22;16450;50.288;10.966;2022-09-29T01:09:19;6.80;96.30
29501;DHT22;16450;50.288;10.966;2022-09-29T01:12:22;6.80;96.20
29501;DHT22;16450;50.288;10.966;2022-09-29T01:15:23;6.70;95.90
29501;DHT22;16450;50.288;10.966;2022-09-29T01:18:24;6.70;95.90
29501;DHT22;16450;50.288;10.966;2022-09-29T01:44:43;6.30;96.30
29501;DHT22;16450;50.288;10.966;2022-09-29T01:47:49;6.30;96.10
29501;DHT22;16450;50.288;10.966;2022-09-29T01:50:55;6.20;96.10
29501;DHT22;16450;50.288;10.966;2022-09-29T01:54:01;6.20;96.10
29501;DHT22;16450;50.288;10.966;2022-09-29T01:57:08;6.20;96.20
29501;DHT22;16450;50.288;10.966;2022-09-29T02:00:13;6.20;96.30
29501;DHT22;16450;50.288;10.966;2022-09-29T02:03:28;6.20;96.60
29501;DHT22;16450;50.288;10.966;2022-09-29T02:06:50;6.20;96.80
29501;DHT22;16450;50.288;10.966;2022-09-29T02:09:59;6.20;96.90
29501;DHT22;16450;50.288;10.966;2022-09-29T02:13:02;6.20;97.00
29501;DHT22;16450;50.288;10.966;2022-09-29T02:16:04;6.20;97.10
29501;DHT22;16450;50.288;10.966;2022-09-29T02:19:21;6.30;97.10
29501;DHT22;16450;50.288;10.966;2022-09-29T02:22:23;6.30;96.80
29501;DHT22;16450;50.288;10.966;2022-09-29T02:25:24;6.30;96.90
29501;DHT22;16450;50.288;10.966;2022-09-29T02:28:25;6.30;96.90
29501;DHT22;16450;50.288;10.966;2022-09-29T02:31:27;6.30;97.10
29501;DHT22;16450;50.288;10.966;2022-09-29T02:34:30;6.30;97.20
29501;DHT22;16450;50.288;10.966;2022-09-29T02:37:34;6.30;97.30
29501;DHT22;16450;50.288;10.966;2022-09-29T02:41:07;6.30;97.50
29501;DHT22;16450;50.288;10.966;2022-09-29T02:47:45;6.40;97.60
29501;DHT22;16450;50.288;10.966;2022-09-29T02:51:09;6.40;97.40
29501;DHT22;16450;50.288;10.966;2022-09-29T02:54:17;6.40;97.50
29501;DHT22;16450;50.288;10.966;2022-09-29T03:00:38;6.40;97.40
29501;DHT22;16450;50.288;10.966;2022-09-29T03:03:39;6.40;97.30
29501;DHT22;16450;50.288;10.966;2022-09-29T03:06:40;6.40;97.30
29501;DHT22;16450;50.288;10.966;2022-09-29T03:09:40;6.40;97.20
29501;DHT22;16450;50.288;10.966;2022-09-29T03:12:41;6.40;97.20
29501;DHT22;16450;50.288;10.966;2022-09-29T03:15:42;6.40;97.10
29501;DHT22;16450;50.288;10.966;2022-09-29T03:18:43;6.30;97.00
29501;DHT22;16450;50.288;10.966;2022-09-29T03:21:43;6.30;97.00
29501;DHT22;16450;50.288;10.966;2022-09-29T03:24:44;6.30;97.10
29501;DHT22;16450;50.288;10.966;2022-09-29T03:27:45;6.30;97.20
29501;DHT22;16450;50.288;10.966;2022-09-29T03:30:45;6.30;97.30
29501;DHT22;16450;50.288;10.966;2022-09-29T03:33:46;6.30;97.30
29501;DHT22;16450;50.288;10.966;2022-09-29T03:36:47;6.20;97.30
29501;DHT22;16450;50.288;10.966;2022-09-29T03:39:47;6.20;97.40
29501;DHT22;16450;50.288;10.966;2022-09-29T03:42:48;6.20;97.40
29501;DHT22;16450;50.288;10.966;2022-09-29T03:45:50;6.30;97.50
29501;DHT22;16450;50.288;10.966;2022-09-29T03:48:50;6.30;97.50
29501;DHT22;16450;50.288;10.966;2022-09-29T03:51:51;6.30;97.50
29501;DHT22;16450;50.288;10.966;2022-09-29T03:54:52;6.30;97.50
29501;DHT22;16450;50.288;10.966;2022-09-29T03:57:53;6.30;97.50
29501;DHT22;16450;50.288;10.966;2022-09-29T04:00:53;6.30;97.50
29501;DHT22;16450;50.288;10.966;2022-09-29T04:03:54;6.30;97.60
29501;DHT22;16450;50.288;10.966;2022-09-29T04:06:55;6.30;97.70
29501;DHT22;16450;50.288;10.966;2022-09-29T04:09:55;6.30;97.80
29501;DHT22;16450;50.288;10.966;2022-09-29T04:12:56;6.30;97.80
29501;DHT22;16450;50.288;10.966;2022-09-29T04:16:02;6.40;97.90
29501;DHT22;16450;50.288;10.966;2022-09-29T04:19:03;6.30;97.80
29501;DHT22;16450;50.288;10.966;2022-09-29T04:22:03;6.30;98.00
29501;DHT22;16450;50.288;10.966;2022-09-29T04:25:04;6.30;98.10
29501;DHT22;16450;50.288;10.966;2022-09-29T04:28:05;6.30;98.20
29501;DHT22;16450;50.288;10.966;2022-09-29T04:31:06;6.30;98.20
29501;DHT22;16450;50.288;10.966;2022-09-29T04:34:07;6.30;98.20
29501;DHT22;16450;50.288;10.966;2022-09-29T04:37:08;6.40;98.20
29501;DHT22;16450;50.288;10.966;2022-09-29T04:40:12;6.40;98.20
29501;DHT22;16450;50.288;10.966;2022-09-29T04:43:13;6.40;98.20
29501;DHT22;16450;50.288;10.966;2022-09-29T04:46:14;6.40;98.10
29501;DHT22;16450;50.288;10.966;2022-09-29T04:49:15;6.40;98.10
29501;DHT22;16450;50.288;10.966;2022-09-29T04:52:15;6.40;98.10
29501;DHT22;16450;50.288;10.966;2022-09-29T04:55:16;6.30;98.00
29501;DHT22;16450;50.288;10.966;2022-09-29T04:58:16;6.40;98.00
29501;DHT22;16450;50.288;10.966;2022-09-29T05:01:17;6.40;97.90
29501;DHT22;16450;50.288;10.966;2022-09-29T05:04:18;6.40;97.90
29501;DHT22;16450;50.288;10.966;2022-09-29T05:07:18;6.40;97.80
29501;DHT22;16450;50.288;10.966;2022-09-29T05:10:19;6.30;97.70
29501;DHT22;16450;50.288;10.966;2022-09-29T05:13:20;6.30;97.70
29501;DHT22;16450;50.288;10.966;2022-09-29T05:16:20;6.30;97.70
29501;DHT22;16450;50.288;10.966;2022-09-29T05:19:21;6.30;97.70
29501;DHT22;16450;50.288;10.966;2022-09-29T05:22:21;6.30;97.80
29501;DHT22;16450;50.288;10.966;2022-09-29T05:25:24;6.30;97.80
29501;DHT22;16450;50.288;10.966;2022-09-29T05:28:24;6.30;97.80
29501;DHT22;16450;50.288;10.966;2022-09-29T05:31:25;6.30;97.90
29501;DHT22;16450;50.288;10.966;2022-09-29T05:34:25;6.20;97.90
29501;DHT22;16450;50.288;10.966;2022-09-29T05:37:26;6.20;97.90
29501;DHT22;16450;50.288;10.966;2022-09-29T05:40:27;6.20;98.30
29501;DHT22;16450;50.288;10.966;2022-09-29T05:43:28;6.20;98.10
29501;DHT22;16450;50.288;10.966;2022-09-29T05:46:28;6.20;98.10
29501;DHT22;16450;50.288;10.966;2022-09-29T05:49:29;6.30;98.20
29501;DHT22;16450;50.288;10.966;2022-09-29T05:52:31;6.30;98.40
29501;DHT22;16450;50.288;10.966;2022-09-29T05:55:31;6.30;98.60
29501;DHT22;16450;50.288;10.966;2022-09-29T05:58:32;6.40;98.90
29501;DHT22;16450;50.288;10.966;2022-09-29T06:01:33;6.40;99.00
29501;DHT22;16450;50.288;10.966;2022-09-29T06:04:34;6.40;99.10
29501;DHT22;16450;50.288;10.966;2022-09-29T06:07:35;6.50;99.20
29501;DHT22;16450;50.288;10.966;2022-09-29T06:10:35;6.60;99.30
29501;DHT22;16450;50.288;10.966;2022-09-29T06:13:37;6.60;99.30
29501;DHT22;16450;50.288;10.966;2022-09-29T06:16:38;6.70;99.30
29501;DHT22;16450;50.288;10.966;2022-09-29T06:19:39;6.70;99.40
29501;DHT22;16450;50.288;10.966;2022-09-29T06:22:40;6.80;99.50
29501;DHT22;16450;50.288;10.966;2022-09-29T06:25:41;6.90;99.60
29501;DHT22;16450;50.288;10.966;2022-09-29T06:28:41;6.90;99.70
29501;DHT22;16450;50.288;10.966;2022-09-29T06:31:42;7.00;99.90
29501;DHT22;16450;50.288;10.966;2022-09-29T06:34:43;7.10;99.90
29501;DHT22;16450;50.288;10.966;2022-09-29T06:38:05;7.20;99.90
29501;DHT22;16450;50.288;10.966;2022-09-29T06:41:05;7.30;99.90
29501;DHT22;16450;50.288;10.966;2022-09-29T06:44:07;7.40;99.90
29501;DHT22;16450;50.288;10.966;2022-09-29T06:47:08;7.50;99.70
29501;DHT22;16450;50.288;10.966;2022-09-29T06:50:10;7.50;99.70
29501;DHT22;16450;50.288;10.966;2022-09-29T06:53:10;7.60;99.70
29501;DHT22;16450;50.288;10.966;2022-09-29T06:56:11;7.60;99.80
29501;DHT22;16450;50.288;10.966;2022-09-29T06:59:11;7.70;99.90
29501;DHT22;16450;50.288;10.966;2022-09-29T07:02:12;7.70;99.90
29501;DHT22;16450;50.288;10.966;2022-09-29T07:05:13;7.80;99.90
29501;DHT22;16450;50.288;10.966;2022-09-29T07:08:14;7.90;99.90
29501;DHT22;16450;50.288;10.966;2022-09-29T07:11:15;8.00;99.80
29501;DHT22;16450;50.288;10.966;2022-09-29T07:14:20;8.10;99.80
29501;DHT22;16450;50.288;10.966;2022-09-29T07:17:24;8.10;99.60
29501;DHT22;16450;50.288;10.966;2022-09-29T07:20:26;8.30;99.70
29501;DHT22;16450;50.288;10.966;2022-09-29T07:23:27;8.30;99.60
29501;DHT22;16450;50.288;10.966;2022-09-29T07:26:28;8.40;99.60
29501;DHT22;16450;50.288;10.966;2022-09-29T07:29:29;8.50;99.60
29501;DHT22;16450;50.288;10.966;2022-09-29T07:32:32;8.50;99.60
29501;DHT22;16450;50.288;10.966;2022-09-29T07:35:32;8.60;99.50
29501;DHT22;16450;50.288;10.966;2022-09-29T07:38:33;8.70;99.60
29501;DHT22;16450;50.288;10.966;2022-09-29T07:41:34;8.70;99.40
29501;DHT22;16450;50.288;10.966;2022-09-29T07:44:35;8.80;99.50
29501;DHT22;16450;50.288;10.966;2022-09-29T07:47:35;8.90;99.60
29501;DHT22;16450;50.288;10.966;2022-09-29T07:50:36;9.00;99.60
29501;DHT22;16450;50.288;10.966;2022-09-29T07:53:37;9.10;99.60
29501;DHT22;16450;50.288;10.966;2022-09-29T07:56:37;9.20;99.50
29501;DHT22;16450;50.288;10.966;2022-09-29T07:59:38;9.30;99.60
29501;DHT22;16450;50.288;10.966;2022-09-29T08:02:38;9.40;99.50
29501;DHT22;16450;50.288;10.966;2022-09-29T08:05:40;9.50;99.50
29501;DHT22;16450;50.288;10.966;2022-09-29T08:08:41;9.60;99.20
29501;DHT22;16450;50.288;10.966;2022-09-29T08:11:43;9.70;99.20
29501;DHT22;16450;50.288;10.966;2022-09-29T08:14:43;9.80;99.10
29501;DHT22;16450;50.288;10.966;2022-09-29T08:17:44;9.80;99.00
29501;DHT22;16450;50.288;10.966;2022-09-29T08:20:46;9.90;98.90
29501;DHT22;16450;50.288;10.966;2022-09-29T08:23:47;9.90;98.60
29501;DHT22;16450;50.288;10.966;2022-09-29T08:26:48;9.90;98.70
29501;DHT22;16450;50.288;10.966;2022-09-29T08:29:48;10.00;98.60
29501;DHT22;16450;50.288;10.966;2022-09-29T08:32:53;10.00;98.50
29501;DHT22;16450;50.288;10.966;2022-09-29T08:35:55;10.10;98.00
29501;DHT22;16450;50.288;10.966;2022-09-29T08:38:57;10.10;98.20
29501;DHT22;16450;50.288;10.966;2022-09-29T08:42:14;10.10;98.00
29501;DHT22;16450;50.288;10.966;2022-09-29T08:45:31;10.10;97.10
29501;DHT22;16450;50.288;10.966;2022-09-29T08:48:37;10.10;97.30
29501;DHT22;16450;50.288;10.966;2022-09-29T08:51:44;10.00;97.50
29501;DHT22;16450;50.288;10.966;2022-09-29T08:54:48;10.00;97.80
29501;DHT22;16450;50.288;10.966;2022-09-29T08:57:56;10.00;97.60
29501;DHT22;16450;50.288;10.966;2022-09-29T09:04:39;9.90;96.60
29501;DHT22;16450;50.288;10.966;2022-09-29T09:11:49;9.90;96.90
29501;DHT22;16450;50.288;10.966;2022-09-29T09:15:20;9.90;96.80
29501;DHT22;16450;50.288;10.966;2022-09-29T09:21:43;9.90;97.90
29501;DHT22;16450;50.288;10.966;2022-09-29T09:24:47;9.90;98.00
29501;DHT22;16450;50.288;10.966;2022-09-29T09:28:03;10.10;99.20
29501;DHT22;16450;50.288;10.966;2022-09-29T09:34:33;10.50;99.10
29501;DHT22;16450;50.288;10.966;2022-09-29T09:37:38;10.80;99.80
29501;DHT22;16450;50.288;10.966;2022-09-29T09:40:50;11.00;99.50
29501;DHT22;16450;50.288;10.966;2022-09-29T09:43:56;11.20;98.70
29501;DHT22;16450;50.288;10.966;2022-09-29T09:47:47;11.30;99.00
29501;DHT22;16450;50.288;10.966;2022-09-29T09:50:24;11.60;99.50
29501;DHT22;16450;50.288;10.966;2022-09-29T09:53:32;11.80;99.80
29501;DHT22;16450;50.288;10.966;2022-09-29T10:03:05;12.40;97.60
29501;DHT22;16450;50.288;10.966;2022-09-29T10:06:07;12.50;97.10
29501;DHT22;16450;50.288;10.966;2022-09-29T10:09:12;12.60;98.20
29501;DHT22;16450;50.288;10.966;2022-09-29T10:12:16;12.60;97.00
29501;DHT22;16450;50.288;10.966;2022-09-29T10:15:21;12.70;97.30
29501;DHT22;16450;50.288;10.966;2022-09-29T10:18:41;12.80;97.50
29501;DHT22;16450;50.288;10.966;2022-09-29T10:21:43;12.80;96.70
29501;DHT22;16450;50.288;10.966;2022-09-29T10:24:44;13.00;98.90
29501;DHT22;16450;50.288;10.966;2022-09-29T10:27:52;13.10;98.90
29501;DHT22;16450;50.288;10.966;2022-09-29T10:30:53;13.40;98.00
29501;DHT22;16450;50.288;10.966;2022-09-29T10:34:00;13.50;98.20
29501;DHT22;16450;50.288;10.966;2022-09-29T10:37:36;13.60;96.20
29501;DHT22;16450;50.288;10.966;2022-09-29T10:40:53;13.60;95.20
29501;DHT22;16450;50.288;10.966;2022-09-29T10:43:55;13.60;94.30
29501;DHT22;16450;50.288;10.966;2022-09-29T10:46:56;13.50;95.90
29501;DHT22;16450;50.288;10.966;2022-09-29T10:50:17;13.50;95.70
29501;DHT22;16450;50.288;10.966;2022-09-29T10:53:36;13.40;93.60
29501;DHT22;16450;50.288;10.966;2022-09-29T10:56:47;13.30;94.50
29501;DHT22;16450;50.288;10.966;2022-09-29T10:59:50;13.20;94.50
29501;DHT22;16450;50.288;10.966;2022-09-29T11:02:57;13.20;95.30
29501;DHT22;16450;50.288;10.966;2022-09-29T11:06:11;13.10;95.30
29501;DHT22;16450;50.288;10.966;2022-09-29T11:12:26;13.00;95.90
29501;DHT22;16450;50.288;10.966;2022-09-29T11:15:39;13.00;94.30
29501;DHT22;16450;50.288;10.966;2022-09-29T11:18:41;12.90;94.30
29501;DHT22;16450;50.288;10.966;2022-09-29T11:28:36;12.70;95.10
29501;DHT22;16450;50.288;10.966;2022-09-29T11:38:37;12.60;96.00
29501;DHT22;16450;50.288;10.966;2022-09-29T11:45:03;12.60;94.30
29501;DHT22;16450;50.288;10.966;2022-09-29T11:48:49;12.60;96.60
29501;DHT22;16450;50.288;10.966;2022-09-29T11:58:27;13.00;95.40
29501;DHT22;16450;50.288;10.966;2022-09-29T12:17:50;13.40;95.00
29501;DHT22;16450;50.288;10.966;2022-09-29T12:20:53;13.40;94.70
29501;DHT22;16450;50.288;10.966;2022-09-29T12:23:54;13.40;95.40
29501;DHT22;16450;50.288;10.966;2022-09-29T12:26:57;13.50;95.50
29501;DHT22;16450;50.288;10.966;2022-09-29T12:30:13;13.50;95.90
29501;DHT22;16450;50.288;10.966;2022-09-29T12:33:38;13.50;94.90
29501;DHT22;16450;50.288;10.966;2022-09-29T12:36:44;13.50;93.70
29501;DHT22;16450;50.288;10.966;2022-09-29T12:40:27;13.50;94.90
29501;DHT22;16450;50.288;10.966;2022-09-29T12:43:48;13.40;93.20
29501;DHT22;16450;50.288;10.966;2022-09-29T12:56:25;13.40;94.40
29501;DHT22;16450;50.288;10.966;2022-09-29T13:15:57;13.60;96.10
29501;DHT22;16450;50.288;10.966;2022-09-29T13:29:16;14.10;93.40
29501;DHT22;16450;50.288;10.966;2022-09-29T13:32:17;14.30;94.00
29501;DHT22;16450;50.288;10.966;2022-09-29T13:35:20;14.20;95.30
29501;DHT22;16450;50.288;10.966;2022-09-29T13:38:26;14.30;94.40
29501;DHT22;16450;50.288;10.966;2022-09-29T13:44:29;14.30;94.40
29501;DHT22;16450;50.288;10.966;2022-09-29T13:47:32;14.30;93.90
29501;DHT22;16450;50.288;10.966;2022-09-29T13:53:39;14.10;92.70
29501;DHT22;16450;50.288;10.966;2022-09-29T13:56:40;14.10;94.10
29501;DHT22;16450;50.288;10.966;2022-09-29T14:03:02;14.00;93.20
29501;DHT22;16450;50.288;10.966;2022-09-29T14:06:14;14.00;92.40
29501;DHT22;16450;50.288;10.966;2022-09-29T14:09:18;14.00;94.30
29501;DHT22;16450;50.288;10.966;2022-09-29T14:12:23;14.00;93.60
29501;DHT22;16450;50.288;10.966;2022-09-29T14:15:27;14.00;93.60
29501;DHT22;16450;50.288;10.966;2022-09-29T14:18:42;13.90;93.70
29501;DHT22;16450;50.288;10.966;2022-09-29T14:21:57;13.90;91.90
29501;DHT22;16450;50.288;10.966;2022-09-29T14:28:15;13.90;91.90
29501;DHT22;16450;50.288;10.966;2022-09-29T14:31:20;13.80;92.90
29501;DHT22;16450;50.288;10.966;2022-09-29T14:34:25;13.80;93.30
29501;DHT22;16450;50.288;10.966;2022-09-29T14:37:27;13.80;93.60
29501;DHT22;16450;50.288;10.966;2022-09-29T14:40:28;13.80;94.00
29501;DHT22;16450;50.288;10.966;2022-09-29T14:54:36;13.70;93.00
29501;DHT22;16450;50.288;10.966;2022-09-29T15:01:12;13.70;94.20
29501;DHT22;16450;50.288;10.966;2022-09-29T15:04:15;13.60;92.90
29501;DHT22;16450;50.288;10.966;2022-09-29T15:07:20;13.60;94.00
29501;DHT22;16450;50.288;10.966;2022-09-29T15:10:27;13.60;93.50
29501;DHT22;16450;50.288;10.966;2022-09-29T15:13:29;13.50;93.30
29501;DHT22;16450;50.288;10.966;2022-09-29T15:20:09;13.50;92.90
29501;DHT22;16450;50.288;10.966;2022-09-29T15:26:44;13.40;92.10
29501;DHT22;16450;50.288;10.966;2022-09-29T15:29:54;13.40;93.90
29501;DHT22;16450;50.288;10.966;2022-09-29T15:33:15;13.30;92.80
29501;DHT22;16450;50.288;10.966;2022-09-29T15:36:19;13.30;92.50
29501;DHT22;16450;50.288;10.966;2022-09-29T15:42:36;13.20;92.30
29501;DHT22;16450;50.288;10.966;2022-09-29T15:45:38;13.20;93.40
29501;DHT22;16450;50.288;10.966;2022-09-29T15:48:39;13.20;94.10
29501;DHT22;16450;50.288;10.966;2022-09-29T15:51:41;13.10;94.10
29501;DHT22;16450;50.288;10.966;2022-09-29T15:54:43;13.10;93.80
29501;DHT22;16450;50.288;10.966;2022-09-29T15:57:46;13.10;94.40
29501;DHT22;16450;50.288;10.966;2022-09-29T16:01:00;13.10;94.10
29501;DHT22;16450;50.288;10.966;2022-09-29T16:04:07;13.10;93.30
29501;DHT22;16450;50.288;10.966;2022-09-29T16:07:37;13.00;93.10
29501;DHT22;16450;50.288;10.966;2022-09-29T16:10:46;12.90;91.90
29501;DHT22;16450;50.288;10.966;2022-09-29T16:14:00;12.90;92.20
29501;DHT22;16450;50.288;10.966;2022-09-29T16:17:02;12.70;91.40
29501;DHT22;16450;50.288;10.966;2022-09-29T16:20:03;12.60;92.80
29501;DHT22;16450;50.288;10.966;2022-09-29T16:23:16;12.50;92.60
29501;DHT22;16450;50.288;10.966;2022-09-29T16:26:43;12.40;92.20
29501;DHT22;16450;50.288;10.966;2022-09-29T16:29:44;12.20;90.70
29501;DHT22;16450;50.288;10.966;2022-09-29T16:32:45;12.20;92.60
29501;DHT22;16450;50.288;10.966;2022-09-29T16:36:00;12.00;92.40
29501;DHT22;16450;50.288;10.966;2022-09-29T16:39:05;12.00;92.20
29501;DHT22;16450;50.288;10.966;2022-09-29T16:42:22;11.80;92.10
29501;DHT22;16450;50.288;10.966;2022-09-29T16:45:23;11.80;91.70
29501;DHT22;16450;50.288;10.966;2022-09-29T16:48:27;11.80;92.80
29501;DHT22;16450;50.288;10.966;2022-09-29T16:51:28;11.70;92.60
29501;DHT22;16450;50.288;10.966;2022-09-29T16:54:32;11.70;93.00
29501;DHT22;16450;50.288;10.966;2022-09-29T16:57:33;11.70;92.60
29501;DHT22;16450;50.288;10.966;2022-09-29T17:00:34;11.70;93.20
29501;DHT22;16450;50.288;10.966;2022-09-29T17:03:37;11.60;92.50
29501;DHT22;16450;50.288;10.966;2022-09-29T17:06:45;11.60;92.20
29501;DHT22;16450;50.288;10.966;2022-09-29T17:09:48;11.50;91.80
29501;DHT22;16450;50.288;10.966;2022-09-29T17:12:50;11.50;92.30
29501;DHT22;16450;50.288;10.966;2022-09-29T17:15:51;11.40;92.40
29501;DHT22;16450;50.288;10.966;2022-09-29T17:18:53;11.40;92.40
29501;DHT22;16450;50.288;10.966;2022-09-29T17:21:55;11.40;92.50
29501;DHT22;16450;50.288;10.966;2022-09-29T17:24:57;11.30;92.50
29501;DHT22;16450;50.288;10.966;2022-09-29T17:27:58;11.30;92.40
29501;DHT22;16450;50.288;10.966;2022-09-29T17:31:11;11.30;92.30
29501;DHT22;16450;50.288;10.966;2022-09-29T17:34:12;11.30;92.30
29501;DHT22;16450;50.288;10.966;2022-09-29T17:37:13;11.20;92.10
29501;DHT22;16450;50.288;10.966;2022-09-29T17:40:48;11.20;91.90
29501;DHT22;16450;50.288;10.966;2022-09-29T17:43:49;11.10;90.60
29501;DHT22;16450;50.288;10.966;2022-09-29T17:46:50;11.00;91.70
29501;DHT22;16450;50.288;10.966;2022-09-29T17:49:51;10.90;91.50
29501;DHT22;16450;50.288;10.966;2022-09-29T17:52:52;10.90;91.60
29501;DHT22;16450;50.288;10.966;2022-09-29T17:55:56;10.80;91.40
29501;DHT22;16450;50.288;10.966;2022-09-29T17:58:57;10.80;91.20
29501;DHT22;16450;50.288;10.966;2022-09-29T18:02:02;10.70;91.50
29501;DHT22;16450;50.288;10.966;2022-09-29T18:05:03;10.70;91.50
29501;DHT22;16450;50.288;10.966;2022-09-29T18:08:05;10.60;91.50
29501;DHT22;16450;50.288;10.966;2022-09-29T18:11:08;10.50;91.50
29501;DHT22;16450;50.288;10.966;2022-09-29T18:14:09;10.50;91.60
29501;DHT22;16450;50.288;10.966;2022-09-29T18:17:10;10.40;91.80
29501;DHT22;16450;50.288;10.966;2022-09-29T18:20:19;10.40;91.90
29501;DHT22;16450;50.288;10.966;2022-09-29T18:23:21;10.30;91.50
29501;DHT22;16450;50.288;10.966;2022-09-29T18:26:24;10.30;91.90
29501;DHT22;16450;50.288;10.966;2022-09-29T18:29:26;10.30;92.10
29501;DHT22;16450;50.288;10.966;2022-09-29T18:32:26;10.20;92.20
29501;DHT22;16450;50.288;10.966;2022-09-29T18:35:35;10.20;92.30
29501;DHT22;16450;50.288;10.966;2022-09-29T18:38:36;10.20;91.90
29501;DHT22;16450;50.288;10.966;2022-09-29T18:41:37;10.20;92.50
29501;DHT22;16450;50.288;10.966;2022-09-29T18:44:37;10.10;92.50
29501;DHT22;16450;50.288;10.966;2022-09-29T18:47:42;10.10;92.50
29501;DHT22;16450;50.288;10.966;2022-09-29T18:50:45;10.10;92.10
29501;DHT22;16450;50.288;10.966;2022-09-29T18:53:46;10.10;92.30
29501;DHT22;16450;50.288;10.966;2022-09-29T18:56:46;10.00;92.40
29501;DHT22;16450;50.288;10.966;2022-09-29T18:59:48;10.00;92.30
29501;DHT22;16450;50.288;10.966;2022-09-29T19:02:50;10.00;92.30
29501;DHT22;16450;50.288;10.966;2022-09-29T19:05:52;9.90;92.30
29501;DHT22;16450;50.288;10.966;2022-09-29T19:08:54;9.90;92.30
29501;DHT22;16450;50.288;10.966;2022-09-29T19:11:55;9.80;92.30
29501;DHT22;16450;50.288;10.966;2022-09-29T19:14:55;9.80;92.50
29501;DHT22;16450;50.288;10.966;2022-09-29T19:17:59;9.80;92.50
29501;DHT22;16450;50.288;10.966;2022-09-29T19:21:00;9.70;92.50
29501;DHT22;16450;50.288;10.966;2022-09-29T19:24:00;9.70;92.50
29501;DHT22;16450;50.288;10.966;2022-09-29T19:27:01;9.70;92.90
29501;DHT22;16450;50.288;10.966;2022-09-29T19:30:02;9.60;92.50
29501;DHT22;16450;50.288;10.966;2022-09-29T19:33:05;9.60;92.40
29501;DHT22;16450;50.288;10.966;2022-09-29T19:36:10;9.50;92.30
29501;DHT22;16450;50.288;10.966;2022-09-29T19:39:13;9.50;92.30
29501;DHT22;16450;50.288;10.966;2022-09-29T19:42:15;9.40;92.30
29501;DHT22;16450;50.288;10.966;2022-09-29T19:45:16;9.30;92.30
29501;DHT22;16450;50.288;10.966;2022-09-29T19:48:19;9.30;92.30
29501;DHT22;16450;50.288;10.966;2022-09-29T19:51:20;9.30;92.30
29501;DHT22;16450;50.288;10.966;2022-09-29T19:54:39;9.20;92.40
29501;DHT22;16450;50.288;10.966;2022-09-29T19:57:40;9.20;92.40
29501;DHT22;16450;50.288;10.966;2022-09-29T20:00:41;9.10;92.40
29501;DHT22;16450;50.288;10.966;2022-09-29T20:03:42;9.10;92.50
29501;DHT22;16450;50.288;10.966;2022-09-29T20:06:47;9.10;92.60
29501;DHT22;16450;50.288;10.966;2022-09-29T20:09:48;9.10;92.80
29501;DHT22;16450;50.288;10.966;2022-09-29T20:12:48;9.00;92.80
29501;DHT22;16450;50.288;10.966;2022-09-29T20:15:49;8.90;92.90
29501;DHT22;16450;50.288;10.966;2022-09-29T20:18:51;8.90;93.10
29501;DHT22;16450;50.288;10.966;2022-09-29T20:21:52;8.90;93.30
29501;DHT22;16450;50.288;10.966;2022-09-29T20:24:53;8.90;93.40
29501;DHT22;16450;50.288;10.966;2022-09-29T20:27:55;8.90;93.60
29501;DHT22;16450;50.288;10.966;2022-09-29T20:30:58;8.90;93.80
29501;DHT22;16450;50.288;10.966;2022-09-29T20:33:59;8.90;93.80
29501;DHT22;16450;50.288;10.966;2022-09-29T20:37:00;8.90;93.80
29501;DHT22;16450;50.288;10.966;2022-09-29T20:40:01;8.90;93.80
29501;DHT22;16450;50.288;10.966;2022-09-29T20:43:01;9.00;93.90
29501;DHT22;16450;50.288;10.966;2022-09-29T20:46:05;8.90;93.80
29501;DHT22;16450;50.288;10.966;2022-09-29T20:49:07;8.90;93.80
29501;DHT22;16450;50.288;10.966;2022-09-29T20:52:08;8.90;93.90
29501;DHT22;16450;50.288;10.966;2022-09-29T20:55:09;8.90;94.00
29501;DHT22;16450;50.288;10.966;2022-09-29T20:58:11;8.90;94.00
29501;DHT22;16450;50.288;10.966;2022-09-29T21:01:21;8.90;94.00
29501;DHT22;16450;50.288;10.966;2022-09-29T21:04:22;8.90;93.80
29501;DHT22;16450;50.288;10.966;2022-09-29T21:07:23;8.90;94.20
29501;DHT22;16450;50.288;10.966;2022-09-29T21:10:35;8.90;94.20
29501;DHT22;16450;50.288;10.966;2022-09-29T21:13:37;8.80;94.20
29501;DHT22;16450;50.288;10.966;2022-09-29T21:16:38;8.80;94.60
29501;DHT22;16450;50.288;10.966;2022-09-29T21:19:44;8.80;94.20
29501;DHT22;16450;50.288;10.966;2022-09-29T21:22:45;8.80;94.30
29501;DHT22;16450;50.288;10.966;2022-09-29T21:25:45;8.80;94.40
29501;DHT22;16450;50.288;10.966;2022-09-29T21:28:54;8.80;94.40
29501;DHT22;16450;50.288;10.966;2022-09-29T21:31:55;8.80;94.40
29501;DHT22;16450;50.288;10.966;2022-09-29T21:34:56;8.70;94.60
29501;DHT22;16450;50.288;10.966;2022-09-29T21:37:56;8.70;94.60
29501;DHT22;16450;50.288;10.966;2022-09-29T21:41:27;8.70;95.00
29501;DHT22;16450;50.288;10.966;2022-09-29T21:44:28;8.70;94.30
29501;DHT22;16450;50.288;10.966;2022-09-29T21:47:29;8.70;94.80
29501;DHT22;16450;50.288;10.966;2022-09-29T21:51:03;8.70;94.80
29501;DHT22;16450;50.288;10.966;2022-09-29T21:54:06;8.70;94.40
29501;DHT22;16450;50.288;10.966;2022-09-29T21:57:07;8.60;94.40
29501;DHT22;16450;50.288;10.966;2022-09-29T22:00:09;8.60;94.40
29501;DHT22;16450;50.288;10.966;2022-09-29T22:03:10;8.60;94.10
29501;DHT22;16450;50.288;10.966;2022-09-29T22:06:34;8.50;93.90
29501;DHT22;16450;50.288;10.966;2022-09-29T22:09:35;8.50;93.60